sensor_id;sensor_type;location;lat;lon;timestamp;pressure;altitude;pressure_sealevel;temperature;humidity
57948;BME280;43754;56.992;24.292;2023-03-21T00:01:00;100766.78;;;7.01;100.00
57948;BME280;43754;56.992;24.292;2023-03-21T00:03:34;100767.91;;;6.99;100.00
57948;BME280;43754;56.992;24.292;2023-03-21T00:06:09;100758.72;;;6.93;100.00
57948;BME280;43754;56.992;24.292;2023-03-21T00:08:42;100766.13;;;6.81;100.00
57948;BME280;43754;56.992;24.292;2023-03-21T00:11:15;100769.50;;;6.83;100.00
57948;BME280;43754;56.992;24.292;2023-03-21T00:13:47;100763.84;;;6.86;100.00
57948;BME280;43754;56.992;24.292;2023-03-21T00:16:20;100766.31;;;6.80;100.00
57948;BME280;43754;56.992;24.292;2023-03-21T00:19:00;100775.22;;;6.71;100.00
57948;BME280;43754;56.992;24.292;2023-03-21T00:21:34;100770.50;;;6.65;100.00
57948;BME280;43754;56.992;24.292;2023-03-21T00:24:29;100767.88;;;6.73;100.00
57948;BME280;43754;56.992;24.292;2023-03-21T00:27:01;100762.28;;;6.76;100.00
57948;BME280;43754;56.992;24.292;2023-03-21T00:29:53;100760.66;;;6.83;100.00
57948;BME280;43754;56.992;24.292;2023-03-21T00:32:27;100763.19;;;6.84;100.00
57948;BME280;43754;56.992;24.292;2023-03-21T00:34:59;100757.75;;;6.76;100.00
57948;BME280;43754;56.992;24.292;2023-03-21T00:37:50;100760.28;;;6.78;100.00
57948;BME280;43754;56.992;24.292;2023-03-21T00:40:22;100763.97;;;6.85;100.00
57948;BME280;43754;56.992;24.292;2023-03-21T00:43:03;100760.13;;;6.79;100.00
57948;BME280;43754;56.992;24.292;2023-03-21T00:45:36;100756.25;;;6.74;100.00
57948;BME280;43754;56.992;24.292;2023-03-21T00:48:11;100757.22;;;6.73;100.00
57948;BME280;43754;56.992;24.292;2023-03-21T00:50:45;100752.09;;;6.71;100.00
57948;BME280;43754;56.992;24.292;2023-03-21T00:53:19;100751.91;;;6.73;100.00
57948;BME280;43754;56.992;24.292;2023-03-21T00:55:51;100754.50;;;6.65;100.00
57948;BME280;43754;56.992;24.292;2023-03-21T00:58:23;100752.84;;;6.64;100.00
57948;BME280;43754;56.992;24.292;2023-03-21T01:00:55;100747.59;;;6.72;100.00
57948;BME280;43754;56.992;24.292;2023-03-21T01:03:29;100742.63;;;6.77;100.00
57948;BME280;43754;56.992;24.292;2023-03-21T01:06:01;100747.94;;;6.77;100.00
57948;BME280;43754;56.992;24.292;2023-03-21T01:08:38;100736.94;;;6.72;100.00
57948;BME280;43754;56.992;24.292;2023-03-21T01:11:27;100739.69;;;6.62;100.00
57948;BME280;43754;56.992;24.292;2023-03-21T01:13:59;100742.88;;;6.66;100.00
57948;BME280;43754;56.992;24.292;2023-03-21T01:16:52;100747.34;;;6.65;100.00
57948;BME280;43754;56.992;24.292;2023-03-21T01:19:25;100747.53;;;6.64;100.00
57948;BME280;43754;56.992;24.292;2023-03-21T01:22:19;100741.81;;;6.59;100.00
57948;BME280;43754;56.992;24.292;2023-03-21T01:24:51;100740.81;;;6.60;100.00
57948;BME280;43754;56.992;24.292;2023-03-21T01:27:31;100732.22;;;6.66;100.00
57948;BME280;43754;56.992;24.292;2023-03-21T01:30:04;100737.81;;;6.55;100.00
57948;BME280;43754;56.992;24.292;2023-03-21T01:32:48;100743.13;;;6.55;100.00
57948;BME280;43754;56.992;24.292;2023-03-21T01:35:22;100740.28;;;6.56;100.00
57948;BME280;43754;56.992;24.292;2023-03-21T01:37:55;100740.75;;;6.52;100.00
57948;BME280;43754;56.992;24.292;2023-03-21T01:40:27;100736.13;;;6.54;100.00
57948;BME280;43754;56.992;24.292;2023-03-21T01:43:21;100737.53;;;6.66;100.00
57948;BME280;43754;56.992;24.292;2023-03-21T01:46:16;100739.38;;;6.65;100.00
57948;BME280;43754;56.992;24.292;2023-03-21T01:49:18;100737.03;;;6.62;100.00
57948;BME280;43754;56.992;24.292;2023-03-21T01:51:59;100746.69;;;6.63;100.00
57948;BME280;43754;56.992;24.292;2023-03-21T01:54:46;100748.19;;;6.66;100.00
57948;BME280;43754;56.992;24.292;2023-03-21T01:57:21;100740.53;;;6.63;100.00
57948;BME280;43754;56.992;24.292;2023-03-21T02:00:05;100751.47;;;6.60;100.00
57948;BME280;43754;56.992;24.292;2023-03-21T02:03:01;100738.47;;;6.57;100.00
57948;BME280;43754;56.992;24.292;2023-03-21T02:06:01;100739.44;;;6.56;100.00
57948;BME280;43754;56.992;24.292;2023-03-21T02:08:44;100739.81;;;6.61;100.00
57948;BME280;43754;56.992;24.292;2023-03-21T02:11:20;100739.00;;;6.60;100.00
57948;BME280;43754;56.992;24.292;2023-03-21T02:13:53;100738.53;;;6.65;100.00
57948;BME280;43754;56.992;24.292;2023-03-21T02:16:51;100737.41;;;6.67;100.00
57948;BME280;43754;56.992;24.292;2023-03-21T02:19:53;100735.19;;;6.63;100.00
57948;BME280;43754;56.992;24.292;2023-03-21T02:25:54;100746.78;;;6.54;100.00
57948;BME280;43754;56.992;24.292;2023-03-21T02:28:37;100750.72;;;6.50;100.00
57948;BME280;43754;56.992;24.292;2023-03-21T02:31:20;100742.03;;;6.47;100.00
57948;BME280;43754;56.992;24.292;2023-03-21T02:37:18;100744.41;;;6.51;100.00
57948;BME280;43754;56.992;24.292;2023-03-21T02:40:07;100743.19;;;6.45;100.00
57948;BME280;43754;56.992;24.292;2023-03-21T02:42:54;100743.00;;;6.38;100.00
57948;BME280;43754;56.992;24.292;2023-03-21T02:45:39;100746.31;;;6.40;100.00
57948;BME280;43754;56.992;24.292;2023-03-21T02:48:17;100753.84;;;6.45;100.00
57948;BME280;43754;56.992;24.292;2023-03-21T02:51:03;100754.38;;;6.48;100.00
57948;BME280;43754;56.992;24.292;2023-03-21T02:53:40;100757.09;;;6.57;100.00
57948;BME280;43754;56.992;24.292;2023-03-21T02:56:14;100758.94;;;6.56;100.00
57948;BME280;43754;56.992;24.292;2023-03-21T02:58:51;100757.28;;;6.55;100.00
57948;BME280;43754;56.992;24.292;2023-03-21T03:01:25;100757.34;;;6.45;100.00
57948;BME280;43754;56.992;24.292;2023-03-21T03:03:57;100754.69;;;6.45;100.00
57948;BME280;43754;56.992;24.292;2023-03-21T03:06:41;100759.31;;;6.43;100.00
57948;BME280;43754;56.992;24.292;2023-03-21T03:09:26;100760.84;;;6.46;100.00
57948;BME280;43754;56.992;24.292;2023-03-21T03:12:06;100766.09;;;6.38;100.00
57948;BME280;43754;56.992;24.292;2023-03-21T03:14:50;100758.56;;;6.33;100.00
57948;BME280;43754;56.992;24.292;2023-03-21T03:17:47;100768.78;;;6.38;100.00
57948;BME280;43754;56.992;24.292;2023-03-21T03:20:27;100772.28;;;6.38;100.00
57948;BME280;43754;56.992;24.292;2023-03-21T03:23:09;100770.13;;;6.42;100.00
57948;BME280;43754;56.992;24.292;2023-03-21T03:25:52;100775.53;;;6.32;100.00
57948;BME280;43754;56.992;24.292;2023-03-21T03:28:30;100775.06;;;6.19;100.00
57948;BME280;43754;56.992;24.292;2023-03-21T03:31:04;100779.09;;;6.23;100.00
57948;BME280;43754;56.992;24.292;2023-03-21T03:33:48;100778.88;;;6.17;100.00
57948;BME280;43754;56.992;24.292;2023-03-21T03:36:26;100785.13;;;6.25;100.00
57948;BME280;43754;56.992;24.292;2023-03-21T03:39:10;100784.94;;;6.27;100.00
57948;BME280;43754;56.992;24.292;2023-03-21T03:41:50;100789.81;;;6.31;100.00
57948;BME280;43754;56.992;24.292;2023-03-21T03:44:46;100787.91;;;6.24;100.00
57948;BME280;43754;56.992;24.292;2023-03-21T03:47:21;100791.56;;;6.23;100.00
57948;BME280;43754;56.992;24.292;2023-03-21T03:50:12;100794.63;;;6.28;100.00
57948;BME280;43754;56.992;24.292;2023-03-21T03:52:49;100796.81;;;6.32;100.00
57948;BME280;43754;56.992;24.292;2023-03-21T03:55:31;100806.31;;;6.35;100.00
57948;BME280;43754;56.992;24.292;2023-03-21T03:58:16;100799.88;;;6.37;100.00
57948;BME280;43754;56.992;24.292;2023-03-21T04:00:56;100796.22;;;6.38;100.00
57948;BME280;43754;56.992;24.292;2023-03-21T04:03:28;100798.59;;;6.41;100.00
57948;BME280;43754;56.992;24.292;2023-03-21T04:06:18;100806.88;;;6.38;100.00
57948;BME280;43754;56.992;24.292;2023-03-21T04:08:51;100811.97;;;6.32;100.00
57948;BME280;43754;56.992;24.292;2023-03-21T04:11:24;100812.94;;;6.31;100.00
57948;BME280;43754;56.992;24.292;2023-03-21T04:13:59;100817.06;;;6.25;100.00
57948;BME280;43754;56.992;24.292;2023-03-21T04:16:31;100819.31;;;6.20;100.00
57948;BME280;43754;56.992;24.292;2023-03-21T04:19:07;100819.19;;;6.22;100.00
57948;BME280;43754;56.992;24.292;2023-03-21T04:21:39;100812.84;;;6.23;100.00
57948;BME280;43754;56.992;24.292;2023-03-21T04:24:12;100819.28;;;6.30;100.00
57948;BME280;43754;56.992;24.292;2023-03-21T04:26:46;100817.06;;;6.25;100.00
57948;BME280;43754;56.992;24.292;2023-03-21T04:29:40;100817.63;;;6.19;100.00
57948;BME280;43754;56.992;24.292;2023-03-21T04:32:35;100816.72;;;6.11;100.00
57948;BME280;43754;56.992;24.292;2023-03-21T04:35:16;100815.97;;;6.18;100.00
57948;BME280;43754;56.992;24.292;2023-03-21T04:37:48;100812.84;;;6.23;100.00
57948;BME280;43754;56.992;24.292;2023-03-21T04:40:20;100815.59;;;6.31;100.00
57948;BME280;43754;56.992;24.292;2023-03-21T04:42:52;100821.16;;;6.37;100.00
57948;BME280;43754;56.992;24.292;2023-03-21T04:45:26;100819.81;;;6.33;100.00
57948;BME280;43754;56.992;24.292;2023-03-21T04:47:59;100821.16;;;6.37;100.00
57948;BME280;43754;56.992;24.292;2023-03-21T04:50:31;100821.63;;;6.33;100.00
57948;BME280;43754;56.992;24.292;2023-03-21T04:53:03;100832.13;;;6.34;100.00
57948;BME280;43754;56.992;24.292;2023-03-21T04:55:36;100837.50;;;6.25;100.00
57948;BME280;43754;56.992;24.292;2023-03-21T04:58:08;100838.63;;;6.22;100.00
57948;BME280;43754;56.992;24.292;2023-03-21T05:00:42;100853.00;;;6.12;100.00
57948;BME280;43754;56.992;24.292;2023-03-21T05:03:14;100854.72;;;6.03;100.00
57948;BME280;43754;56.992;24.292;2023-03-21T05:05:51;100858.13;;;5.95;100.00
57948;BME280;43754;56.992;24.292;2023-03-21T05:08:24;100861.22;;;5.91;100.00
57948;BME280;43754;56.992;24.292;2023-03-21T05:10:56;100858.31;;;5.75;100.00
57948;BME280;43754;56.992;24.292;2023-03-21T05:13:30;100866.59;;;5.72;100.00
57948;BME280;43754;56.992;24.292;2023-03-21T05:16:05;100873.44;;;5.65;100.00
57948;BME280;43754;56.992;24.292;2023-03-21T05:18:37;100865.38;;;5.56;100.00
57948;BME280;43754;56.992;24.292;2023-03-21T05:21:16;100867.78;;;5.40;100.00
57948;BME280;43754;56.992;24.292;2023-03-21T05:23:51;100873.84;;;5.23;100.00
57948;BME280;43754;56.992;24.292;2023-03-21T05:26:26;100874.13;;;5.10;100.00
57948;BME280;43754;56.992;24.292;2023-03-21T05:29:09;100890.63;;;5.14;100.00
57948;BME280;43754;56.992;24.292;2023-03-21T05:31:43;100886.03;;;5.16;100.00
57948;BME280;43754;56.992;24.292;2023-03-21T05:34:18;100888.81;;;5.15;100.00
57948;BME280;43754;56.992;24.292;2023-03-21T05:36:50;100894.53;;;5.10;100.00
57948;BME280;43754;56.992;24.292;2023-03-21T05:39:24;100901.28;;;5.04;100.00
57948;BME280;43754;56.992;24.292;2023-03-21T05:42:18;100906.72;;;5.03;100.00
57948;BME280;43754;56.992;24.292;2023-03-21T05:44:51;100904.59;;;4.97;100.00
57948;BME280;43754;56.992;24.292;2023-03-21T05:47:29;100907.00;;;4.90;100.00
57948;BME280;43754;56.992;24.292;2023-03-21T05:50:05;100912.03;;;4.84;100.00
57948;BME280;43754;56.992;24.292;2023-03-21T05:52:38;100907.81;;;4.81;100.00
57948;BME280;43754;56.992;24.292;2023-03-21T05:55:16;100926.28;;;4.83;100.00
57948;BME280;43754;56.992;24.292;2023-03-21T05:57:48;100918.31;;;4.83;100.00
57948;BME280;43754;56.992;24.292;2023-03-21T06:00:26;100920.13;;;4.82;100.00
57948;BME280;43754;56.992;24.292;2023-03-21T06:03:18;100915.81;;;4.72;100.00
57948;BME280;43754;56.992;24.292;2023-03-21T06:06:12;100926.81;;;4.77;100.00
57948;BME280;43754;56.992;24.292;2023-03-21T06:08:52;100931.19;;;4.87;100.00
57948;BME280;43754;56.992;24.292;2023-03-21T06:11:27;100933.81;;;4.97;100.00
57948;BME280;43754;56.992;24.292;2023-03-21T06:14:17;100943.06;;;4.93;100.00
57948;BME280;43754;56.992;24.292;2023-03-21T06:16:55;100951.16;;;5.01;100.00
57948;BME280;43754;56.992;24.292;2023-03-21T06:19:28;100945.31;;;4.88;100.00
57948;BME280;43754;56.992;24.292;2023-03-21T06:22:14;100948.66;;;4.90;100.00
57948;BME280;43754;56.992;24.292;2023-03-21T06:24:46;100964.72;;;4.98;100.00
57948;BME280;43754;56.992;24.292;2023-03-21T06:27:20;100959.31;;;5.09;100.00
57948;BME280;43754;56.992;24.292;2023-03-21T06:29:58;100971.59;;;5.20;100.00
57948;BME280;43754;56.992;24.292;2023-03-21T06:32:34;100973.25;;;5.30;100.00
57948;BME280;43754;56.992;24.292;2023-03-21T06:35:14;100977.28;;;5.73;100.00
57948;BME280;43754;56.992;24.292;2023-03-21T06:37:47;100978.81;;;5.94;100.00
57948;BME280;43754;56.992;24.292;2023-03-21T06:40:21;100982.69;;;6.10;100.00
57948;BME280;43754;56.992;24.292;2023-03-21T06:42:54;100975.59;;;6.37;100.00
57948;BME280;43754;56.992;24.292;2023-03-21T06:45:26;100980.47;;;6.42;100.00
57948;BME280;43754;56.992;24.292;2023-03-21T06:47:58;100972.22;;;6.63;100.00
57948;BME280;43754;56.992;24.292;2023-03-21T06:50:39;100986.00;;;6.58;100.00
57948;BME280;43754;56.992;24.292;2023-03-21T06:53:11;100982.69;;;6.74;100.00
57948;BME280;43754;56.992;24.292;2023-03-21T06:56:15;100987.00;;;6.47;100.00
57948;BME280;43754;56.992;24.292;2023-03-21T06:58:49;100986.91;;;6.03;100.00
57948;BME280;43754;56.992;24.292;2023-03-21T07:01:36;100997.41;;;6.04;100.00
57948;BME280;43754;56.992;24.292;2023-03-21T07:04:11;101008.22;;;5.93;100.00
57948;BME280;43754;56.992;24.292;2023-03-21T07:06:44;101002.06;;;5.64;100.00
57948;BME280;43754;56.992;24.292;2023-03-21T07:09:16;101002.34;;;5.70;100.00
57948;BME280;43754;56.992;24.292;2023-03-21T07:11:50;101007.00;;;5.59;100.00
57948;BME280;43754;56.992;24.292;2023-03-21T07:14:27;101008.81;;;5.68;100.00
57948;BME280;43754;56.992;24.292;2023-03-21T07:17:00;101009.91;;;5.75;100.00
57948;BME280;43754;56.992;24.292;2023-03-21T07:19:33;101013.84;;;5.61;100.00
57948;BME280;43754;56.992;24.292;2023-03-21T07:22:07;101020.13;;;5.60;100.00
57948;BME280;43754;56.992;24.292;2023-03-21T07:24:39;101021.13;;;5.59;100.00
57948;BME280;43754;56.992;24.292;2023-03-21T07:27:11;101028.41;;;5.57;100.00
57948;BME280;43754;56.992;24.292;2023-03-21T07:29:43;101026.28;;;5.61;100.00
57948;BME280;43754;56.992;24.292;2023-03-21T07:32:17;101030.94;;;5.59;100.00
57948;BME280;43754;56.992;24.292;2023-03-21T07:34:49;101021.25;;;5.96;100.00
57948;BME280;43754;56.992;24.292;2023-03-21T07:37:23;101029.00;;;6.26;100.00
57948;BME280;43754;56.992;24.292;2023-03-21T07:39:56;101031.31;;;6.02;100.00
57948;BME280;43754;56.992;24.292;2023-03-21T07:42:29;101025.44;;;5.79;100.00
57948;BME280;43754;56.992;24.292;2023-03-21T07:45:05;101036.63;;;5.64;100.00
57948;BME280;43754;56.992;24.292;2023-03-21T07:47:38;101034.56;;;5.38;100.00
57948;BME280;43754;56.992;24.292;2023-03-21T07:50:10;101040.56;;;5.40;100.00
57948;BME280;43754;56.992;24.292;2023-03-21T07:52:43;101037.47;;;5.35;100.00
57948;BME280;43754;56.992;24.292;2023-03-21T07:55:16;101047.28;;;5.25;100.00
57948;BME280;43754;56.992;24.292;2023-03-21T07:57:48;101044.34;;;5.28;100.00
57948;BME280;43754;56.992;24.292;2023-03-21T08:00:21;101043.38;;;5.29;100.00
57948;BME280;43754;56.992;24.292;2023-03-21T08:02:56;101049.22;;;5.23;100.00
57948;BME280;43754;56.992;24.292;2023-03-21T08:05:33;101049.34;;;5.12;100.00
57948;BME280;43754;56.992;24.292;2023-03-21T08:08:07;101052.25;;;4.99;100.00
57948;BME280;43754;56.992;24.292;2023-03-21T08:10:41;101054.09;;;4.99;100.00
57948;BME280;43754;56.992;24.292;2023-03-21T08:13:13;101054.03;;;4.89;100.00
57948;BME280;43754;56.992;24.292;2023-03-21T08:15:45;101059.91;;;4.93;100.00
57948;BME280;43754;56.992;24.292;2023-03-21T08:18:18;101060.19;;;4.90;100.00
57948;BME280;43754;56.992;24.292;2023-03-21T08:20:51;101062.16;;;4.88;100.00
57948;BME280;43754;56.992;24.292;2023-03-21T08:23:25;101064.41;;;4.92;100.00
57948;BME280;43754;56.992;24.292;2023-03-21T08:25:58;101062.16;;;4.88;100.00
57948;BME280;43754;56.992;24.292;2023-03-21T08:28:30;101066.72;;;4.76;100.00
57948;BME280;43754;56.992;24.292;2023-03-21T08:31:06;101073.31;;;4.82;100.00
57948;BME280;43754;56.992;24.292;2023-03-21T08:33:38;101074.16;;;4.82;100.00
57948;BME280;43754;56.992;24.292;2023-03-21T08:36:10;101077.78;;;4.72;100.00
57948;BME280;43754;56.992;24.292;2023-03-21T08:38:44;101081.34;;;4.61;100.00
57948;BME280;43754;56.992;24.292;2023-03-21T08:41:19;101087.19;;;4.55;100.00
57948;BME280;43754;56.992;24.292;2023-03-21T08:43:53;101096.59;;;4.59;100.00
57948;BME280;43754;56.992;24.292;2023-03-21T08:46:25;101098.25;;;4.60;100.00
57948;BME280;43754;56.992;24.292;2023-03-21T08:48:57;101092.13;;;4.39;100.00
57948;BME280;43754;56.992;24.292;2023-03-21T08:51:29;101092.94;;;4.30;100.00
57948;BME280;43754;56.992;24.292;2023-03-21T08:54:03;101104.63;;;4.27;100.00
57948;BME280;43754;56.992;24.292;2023-03-21T08:56:36;101101.09;;;4.17;100.00
57948;BME280;43754;56.992;24.292;2023-03-21T08:59:08;101108.31;;;4.36;100.00
57948;BME280;43754;56.992;24.292;2023-03-21T09:01:40;101116.72;;;4.41;100.00
57948;BME280;43754;56.992;24.292;2023-03-21T09:04:12;101118.66;;;4.39;100.00
57948;BME280;43754;56.992;24.292;2023-03-21T09:06:45;101122.34;;;4.47;100.00
57948;BME280;43754;56.992;24.292;2023-03-21T09:09:19;101125.16;;;4.46;100.00
57948;BME280;43754;56.992;24.292;2023-03-21T09:11:51;101121.66;;;4.45;100.00
57948;BME280;43754;56.992;24.292;2023-03-21T09:14:23;101131.31;;;4.46;100.00
57948;BME280;43754;56.992;24.292;2023-03-21T09:16:59;101146.81;;;4.51;100.00
57948;BME280;43754;56.992;24.292;2023-03-21T09:19:31;101145.59;;;4.55;100.00
57948;BME280;43754;56.992;24.292;2023-03-21T09:22:05;101143.66;;;4.57;100.00
57948;BME280;43754;56.992;24.292;2023-03-21T09:24:46;101154.19;;;4.47;100.00
57948;BME280;43754;56.992;24.292;2023-03-21T09:27:20;101157.56;;;4.49;100.00
57948;BME280;43754;56.992;24.292;2023-03-21T09:29:53;101151.72;;;4.55;100.00
57948;BME280;43754;56.992;24.292;2023-03-21T09:32:26;101160.94;;;4.51;100.00
57948;BME280;43754;56.992;24.292;2023-03-21T09:34:59;101172.09;;;4.45;100.00
57948;BME280;43754;56.992;24.292;2023-03-21T09:37:31;101171.88;;;4.37;100.00
57948;BME280;43754;56.992;24.292;2023-03-21T09:40:08;101183.38;;;4.47;100.00
57948;BME280;43754;56.992;24.292;2023-03-21T09:42:54;101176.94;;;4.40;100.00
57948;BME280;43754;56.992;24.292;2023-03-21T09:45:31;101178.28;;;4.35;100.00
57948;BME280;43754;56.992;24.292;2023-03-21T09:48:15;101190.84;;;4.33;100.00
57948;BME280;43754;56.992;24.292;2023-03-21T09:50:50;101192.16;;;4.38;100.00
57948;BME280;43754;56.992;24.292;2023-03-21T09:53:26;101196.84;;;4.35;100.00
57948;BME280;43754;56.992;24.292;2023-03-21T09:56:02;101210.78;;;4.27;100.00
57948;BME280;43754;56.992;24.292;2023-03-21T09:58:40;101208.84;;;4.29;100.00
57948;BME280;43754;56.992;24.292;2023-03-21T10:01:16;101212.53;;;4.38;100.00
57948;BME280;43754;56.992;24.292;2023-03-21T10:04:05;101217.69;;;4.39;100.00
57948;BME280;43754;56.992;24.292;2023-03-21T10:06:39;101219.31;;;4.51;100.00
57948;BME280;43754;56.992;24.292;2023-03-21T10:09:15;101220.75;;;4.55;100.00
57948;BME280;43754;56.992;24.292;2023-03-21T10:11:56;101205.84;;;4.64;100.00
57948;BME280;43754;56.992;24.292;2023-03-21T10:14:32;101212.66;;;4.57;100.00
57948;BME280;43754;56.992;24.292;2023-03-21T10:17:17;101210.94;;;4.46;100.00
57948;BME280;43754;56.992;24.292;2023-03-21T10:19:56;101226.22;;;4.54;100.00
57948;BME280;43754;56.992;24.292;2023-03-21T10:22:32;101224.41;;;4.54;100.00
57948;BME280;43754;56.992;24.292;2023-03-21T10:25:05;101227.25;;;4.62;100.00
57948;BME280;43754;56.992;24.292;2023-03-21T10:27:39;101228.66;;;4.46;100.00
57948;BME280;43754;56.992;24.292;2023-03-21T10:30:19;101227.06;;;4.54;100.00
57948;BME280;43754;56.992;24.292;2023-03-21T10:32:56;101232.94;;;4.58;100.00
57948;BME280;43754;56.992;24.292;2023-03-21T10:35:31;101236.16;;;4.61;100.00
57948;BME280;43754;56.992;24.292;2023-03-21T10:38:05;101234.34;;;4.41;100.00
57948;BME280;43754;56.992;24.292;2023-03-21T10:40:37;101238.50;;;4.55;100.00
57948;BME280;43754;56.992;24.292;2023-03-21T10:43:17;101228.31;;;4.60;100.00
57948;BME280;43754;56.992;24.292;2023-03-21T10:45:50;101224.81;;;4.59;100.00
57948;BME280;43754;56.992;24.292;2023-03-21T10:48:23;101233.53;;;4.61;100.00
57948;BME280;43754;56.992;24.292;2023-03-21T10:50:55;101226.97;;;4.86;100.00
57948;BME280;43754;56.992;24.292;2023-03-21T10:53:30;101229.22;;;4.91;100.00
57948;BME280;43754;56.992;24.292;2023-03-21T10:56:06;101228.84;;;4.95;100.00
57948;BME280;43754;56.992;24.292;2023-03-21T10:58:43;101228.63;;;5.08;100.00
57948;BME280;43754;56.992;24.292;2023-03-21T11:01:25;101245.41;;;5.08;100.00
57948;BME280;43754;56.992;24.292;2023-03-21T11:04:06;101239.47;;;4.95;100.00
57948;BME280;43754;56.992;24.292;2023-03-21T11:06:40;101242.91;;;4.86;100.00
57948;BME280;43754;56.992;24.292;2023-03-21T11:09:15;101242.44;;;4.81;100.00
57948;BME280;43754;56.992;24.292;2023-03-21T11:11:50;101248.66;;;4.91;100.00
57948;BME280;43754;56.992;24.292;2023-03-21T11:14:30;101246.09;;;5.10;100.00
57948;BME280;43754;56.992;24.292;2023-03-21T11:17:14;101251.56;;;5.09;100.00
57948;BME280;43754;56.992;24.292;2023-03-21T11:19:51;101246.66;;;5.14;100.00
57948;BME280;43754;56.992;24.292;2023-03-21T11:22:25;101242.66;;;5.20;100.00
57948;BME280;43754;56.992;24.292;2023-03-21T11:25:00;101242.25;;;5.24;100.00
57948;BME280;43754;56.992;24.292;2023-03-21T11:27:33;101252.66;;;5.37;100.00
57948;BME280;43754;56.992;24.292;2023-03-21T11:30:19;101244.72;;;5.46;100.00
57948;BME280;43754;56.992;24.292;2023-03-21T11:32:54;101241.31;;;5.75;100.00
57948;BME280;43754;56.992;24.292;2023-03-21T11:35:32;101239.25;;;5.97;100.00
57948;BME280;43754;56.992;24.292;2023-03-21T11:38:05;101240.56;;;6.13;100.00
57948;BME280;43754;56.992;24.292;2023-03-21T11:40:57;101246.72;;;6.32;100.00
57948;BME280;43754;56.992;24.292;2023-03-21T11:43:31;101252.19;;;6.21;100.00
57948;BME280;43754;56.992;24.292;2023-03-21T11:46:08;101241.53;;;6.21;100.00
57948;BME280;43754;56.992;24.292;2023-03-21T11:48:42;101252.91;;;6.33;100.00
57948;BME280;43754;56.992;24.292;2023-03-21T11:51:21;101251.91;;;6.24;100.00
57948;BME280;43754;56.992;24.292;2023-03-21T11:54:04;101257.22;;;6.05;100.00
57948;BME280;43754;56.992;24.292;2023-03-21T11:56:41;101258.38;;;6.22;100.00
57948;BME280;43754;56.992;24.292;2023-03-21T11:59:25;101255.97;;;6.47;100.00
57948;BME280;43754;56.992;24.292;2023-03-21T12:02:17;101257.06;;;6.83;100.00
57948;BME280;43754;56.992;24.292;2023-03-21T12:05:00;101257.91;;;6.74;100.00
57948;BME280;43754;56.992;24.292;2023-03-21T12:07:47;101268.72;;;6.63;100.00
57948;BME280;43754;56.992;24.292;2023-03-21T12:10:29;101269.56;;;6.35;100.00
57948;BME280;43754;56.992;24.292;2023-03-21T12:13:09;101273.75;;;6.28;100.00
57948;BME280;43754;56.992;24.292;2023-03-21T12:15:51;101265.06;;;6.07;100.00
57948;BME280;43754;56.992;24.292;2023-03-21T12:18:40;101276.56;;;6.17;100.00
57948;BME280;43754;56.992;24.292;2023-03-21T12:21:17;101277.13;;;6.20;100.00
57948;BME280;43754;56.992;24.292;2023-03-21T12:23:59;101276.41;;;6.18;100.00
57948;BME280;43754;56.992;24.292;2023-03-21T12:26:39;101283.59;;;6.37;100.00
57948;BME280;43754;56.992;24.292;2023-03-21T12:29:39;101281.31;;;6.23;100.00
57948;BME280;43754;56.992;24.292;2023-03-21T12:32:35;101274.34;;;5.82;100.00
57948;BME280;43754;56.992;24.292;2023-03-21T12:35:23;101280.53;;;5.42;100.00
57948;BME280;43754;56.992;24.292;2023-03-21T12:38:05;101284.34;;;5.49;100.00
57948;BME280;43754;56.992;24.292;2023-03-21T12:43:41;101294.00;;;5.90;100.00
57948;BME280;43754;56.992;24.292;2023-03-21T12:46:19;101293.53;;;5.76;100.00
57948;BME280;43754;56.992;24.292;2023-03-21T12:48:57;101284.38;;;5.59;100.00
57948;BME280;43754;56.992;24.292;2023-03-21T12:51:35;101293.63;;;5.65;100.00
57948;BME280;43754;56.992;24.292;2023-03-21T12:54:15;101281.72;;;5.29;100.00
57948;BME280;43754;56.992;24.292;2023-03-21T12:56:49;101280.59;;;5.31;100.00
57948;BME280;43754;56.992;24.292;2023-03-21T12:59:30;101283.13;;;5.63;100.00
57948;BME280;43754;56.992;24.292;2023-03-21T13:02:15;101288.13;;;5.56;100.00
57948;BME280;43754;56.992;24.292;2023-03-21T13:04:55;101289.72;;;5.69;100.00
57948;BME280;43754;56.992;24.292;2023-03-21T13:07:37;101290.94;;;5.55;100.00
57948;BME280;43754;56.992;24.292;2023-03-21T13:10:13;101297.28;;;5.33;100.00
57948;BME280;43754;56.992;24.292;2023-03-21T13:13:03;101285.50;;;5.05;100.00
57948;BME280;43754;56.992;24.292;2023-03-21T13:15:44;101284.78;;;5.24;100.00
57948;BME280;43754;56.992;24.292;2023-03-21T13:18:31;101297.00;;;5.67;100.00
57948;BME280;43754;56.992;24.292;2023-03-21T13:21:11;101300.63;;;5.66;100.00
57948;BME280;43754;56.992;24.292;2023-03-21T13:23:59;101298.25;;;5.63;100.00
57948;BME280;43754;56.992;24.292;2023-03-21T13:26:35;101303.00;;;5.59;100.00
57948;BME280;43754;56.992;24.292;2023-03-21T13:29:12;101295.41;;;5.54;100.00
57948;BME280;43754;56.992;24.292;2023-03-21T13:31:47;101301.16;;;5.60;100.00
57948;BME280;43754;56.992;24.292;2023-03-21T13:34:24;101306.09;;;5.34;100.00
57948;BME280;43754;56.992;24.292;2023-03-21T13:36:56;101304.47;;;5.52;100.00
57948;BME280;43754;56.992;24.292;2023-03-21T13:39:30;101314.28;;;5.51;100.00
57948;BME280;43754;56.992;24.292;2023-03-21T13:42:04;101319.41;;;5.43;100.00
57948;BME280;43754;56.992;24.292;2023-03-21T13:44:42;101320.09;;;5.36;100.00